Time;durP1;ratioP1;P1;durP2;ratioP2;P2;SDS_P1;SDS_P2;PMS_P1;PMS_P2;Temp;Humidity;BMP_temperature;BMP_pressure;BME280_temperature;BME280_humidity;BME280_pressure;Samples;Min_cycle;Max_cycle;Signal;HPM_P1;HPM_P2
2023/01/25 00:01:19;;;;;;;35.25;18.33;;;;;;;-142.75;100.00;80351.56;5039225;28;20090;-67
2023/01/25 00:03:45;;;;;;;33.78;17.10;;;;;;;-142.75;100.00;80359.44;5022088;28;20086;-67
2023/01/25 00:06:10;;;;;;;34.63;16.42;;;;;;;-142.75;100.00;80343.66;5021820;28;20117;-66
2023/01/25 00:08:37;;;;;;;34.15;16.15;;;;;;;-142.75;100.00;80357.47;5029446;28;20022;-68
2023/01/25 00:11:02;;;;;;;40.17;18.63;;;;;;;-142.75;100.00;80361.41;4982554;28;1062333;-66
2023/01/25 00:13:28;;;;;;;33.92;17.05;;;;;;;-142.75;100.00;80349.56;5020558;28;20465;-66
2023/01/25 00:15:59;;;;;;;40.45;16.90;;;;;;;-142.75;100.00;80323.97;5008822;28;20025;-67
2023/01/25 00:18:24;;;;;;;37.60;17.77;;;;;;;-142.75;100.00;80304.25;5039730;28;20028;-67
2023/01/25 00:20:49;;;;;;;34.40;18.33;;;;;;;-142.75;100.00;80312.16;5040784;28;20059;-68
2023/01/25 00:23:15;;;;;;;35.80;17.92;;;;;;;-142.75;100.00;80316.09;5023027;28;20491;-69
2023/01/25 00:25:40;;;;;;;30.45;15.82;;;;;;;-142.75;100.00;80322.00;5040071;28;20033;-67
2023/01/25 00:28:05;;;;;;;33.95;17.67;;;;;;;-142.75;100.00;80316.09;5021784;28;20056;-68
2023/01/25 00:30:30;;;;;;;28.45;15.27;;;;;;;-142.75;100.00;80322.00;5021861;28;20027;-67
2023/01/25 00:33:37;;;;;;;33.05;16.73;;;;;;;-142.75;100.00;80312.16;5002560;28;20021;-66
2023/01/25 00:36:38;;;;;;;35.50;17.37;;;;;;;-142.75;100.00;80329.88;5029096;28;20029;-68
2023/01/25 00:39:11;;;;;;;32.73;16.47;;;;;;;-142.75;100.00;80339.72;5035684;28;20069;-67
2023/01/25 00:41:36;;;;;;;37.53;17.60;;;;;;;-142.75;100.00;80345.63;5031333;28;20112;-68
2023/01/25 00:44:02;;;;;;;36.40;18.67;;;;;;;-142.75;100.00;80365.34;5020110;28;20017;-67
2023/01/25 00:46:27;;;;;;;41.63;19.95;;;;;;;-142.75;100.00;80383.06;5014354;28;20477;-66
2023/01/25 00:48:54;;;;;;;41.60;19.77;;;;;;;-142.75;100.00;80367.31;5019661;28;20038;-67
2023/01/25 00:51:20;;;;;;;35.73;17.97;;;;;;;-142.75;100.00;80357.47;5026949;28;20028;-67
2023/01/25 00:53:45;;;;;;;38.83;18.87;;;;;;;-142.75;100.00;80373.22;5039738;28;20028;-67
2023/01/25 00:56:11;;;;;;;42.17;18.92;;;;;;;-142.75;100.00;80347.59;5039797;28;20024;-67
2023/01/25 00:58:36;;;;;;;39.22;18.02;;;;;;;-142.75;100.00;80359.44;5039012;28;20029;-67
2023/01/25 01:01:02;;;;;;;36.65;18.20;;;;;;;-142.75;100.00;80335.78;5028282;28;20041;-67
2023/01/25 01:03:27;;;;;;;36.47;18.25;;;;;;;-142.75;100.00;80333.81;5004479;28;20055;-67
2023/01/25 01:06:07;;;;;;;37.70;18.73;;;;;;;-142.75;100.00;80316.09;5039641;28;20494;-67
2023/01/25 01:08:35;;;;;;;37.00;17.97;;;;;;;-142.75;100.00;80314.13;5038766;28;20688;-67
2023/01/25 01:11:03;;;;;;;39.07;18.53;;;;;;;-142.75;100.00;80353.53;5023504;28;20021;-67
2023/01/25 01:13:29;;;;;;;37.77;19.07;;;;;;;-142.75;100.00;80355.50;5021058;28;20022;-67
2023/01/25 01:15:55;;;;;;;;;;;;;;;-142.75;100.00;80331.84;5020121;28;20021;-68
2023/01/25 01:18:21;;;;;;;37.90;17.50;;;;;;;-142.75;100.00;80322.00;5027319;28;20377;-68
2023/01/25 01:20:52;;;;;;;39.95;19.20;;;;;;;-142.75;100.00;80308.19;5026243;28;20026;-67
2023/01/25 01:23:18;;;;;;;38.80;17.93;;;;;;;-142.75;100.00;80300.31;5019276;28;20065;-67
2023/01/25 01:25:44;;;;;;;33.17;17.35;;;;;;;-142.75;100.00;80304.25;5030777;28;20136;-68
2023/01/25 01:34:53;;;;;;;39.37;18.00;;;;;;;-142.75;100.00;80357.47;5028611;28;20028;-66
2023/01/25 01:37:18;;;;;;;39.08;20.23;;;;;;;-142.75;100.00;80345.63;5018242;28;20034;-66
2023/01/25 01:39:43;;;;;;;41.30;19.90;;;;;;;-142.75;100.00;80325.94;5019238;28;20033;-66
2023/01/25 01:42:09;;;;;;;40.15;18.90;;;;;;;-142.75;100.00;80308.19;5019736;28;20739;-67
2023/01/25 01:44:45;;;;;;;41.47;19.60;;;;;;;-142.75;100.00;80304.25;5003865;28;20654;-66
2023/01/25 01:47:19;;;;;;;38.92;19.25;;;;;;;-142.75;100.00;80300.31;5017883;28;20044;-66
2023/01/25 01:49:51;;;;;;;39.03;18.40;;;;;;;-142.75;100.00;80296.38;5018960;28;20029;-68
2023/01/25 01:52:23;;;;;;;36.37;17.00;;;;;;;-142.75;100.00;80300.31;5023433;28;20886;-67
2023/01/25 01:54:54;;;;;;;36.23;18.80;;;;;;;-142.75;100.00;80306.22;5018045;28;20029;-65
2023/01/25 01:57:32;;;;;;;36.73;18.93;;;;;;;-142.75;100.00;80288.50;5017907;28;20025;-67
2023/01/25 02:00:10;;;;;;;41.53;20.47;;;;;;;-142.75;100.00;80288.50;5000656;28;20364;-67
2023/01/25 02:02:35;;;;;;;37.73;18.20;;;;;;;-142.75;100.00;80300.31;5018856;28;20026;-68
2023/01/25 02:05:05;;;;;;;45.22;20.70;;;;;;;-142.75;100.00;80312.16;5018688;28;20029;-66
2023/01/25 02:07:34;;;;;;;42.00;18.80;;;;;;;-142.75;100.00;80325.94;5017694;28;20112;-67
2023/01/25 02:10:00;;;;;;;41.67;18.97;;;;;;;-142.75;100.00;80339.72;5000921;28;20052;-67
2023/01/25 02:12:26;;;;;;;36.70;17.60;;;;;;;-142.75;100.00;80337.75;5018479;28;20053;-66
2023/01/25 02:14:53;;;;;;;;;;;;;;;-142.75;100.00;80323.97;5004044;28;20029;-66
2023/01/25 02:17:25;;;;;;;37.80;17.63;;;;;;;-142.75;100.00;80320.03;5012380;28;19913;-67
2023/01/25 02:20:16;;;;;;;38.63;18.80;;;;;;;-142.75;100.00;80335.78;5018872;28;20091;-67
2023/01/25 02:23:17;;;;;;;36.90;18.10;;;;;;;-142.75;100.00;80322.00;4973858;28;20041;-67
2023/01/25 02:25:42;;;;;;;36.60;18.17;;;;;;;-142.75;100.00;80333.81;4918860;29;20078;-67
2023/01/25 02:28:13;;;;;;;40.95;20.05;;;;;;;-142.75;100.00;80296.38;4996358;28;20045;-63
2023/01/25 02:30:39;;;;;;;39.87;19.07;;;;;;;-142.75;100.00;80300.31;5033523;28;20039;-67
2023/01/25 02:33:04;;;;;;;41.97;20.75;;;;;;;-142.75;100.00;80304.25;5020308;28;20140;-68
2023/01/25 02:35:45;;;;;;;43.97;21.38;;;;;;;-142.75;100.00;80312.16;5034503;28;20028;-68
2023/01/25 02:38:16;;;;;;;40.63;19.70;;;;;;;-142.75;100.00;80304.25;5029703;28;20025;-67
2023/01/25 02:40:54;;;;;;;40.50;19.40;;;;;;;-142.75;100.00;80314.13;5034665;28;20514;-66
2023/01/25 02:43:21;;;;;;;43.37;19.53;;;;;;;-142.75;100.00;80316.09;5036649;28;20112;-67
2023/01/25 02:45:51;;;;;;;40.37;19.63;;;;;;;-142.75;100.00;80310.16;5020159;28;20079;-66
2023/01/25 02:48:16;;;;;;;45.43;20.40;;;;;;;-142.75;100.00;80312.16;5019522;28;20029;-67
2023/01/25 02:50:41;;;;;;;42.53;19.77;;;;;;;-142.75;100.00;80318.06;5030068;28;20290;-66
2023/01/25 02:53:07;;;;;;;40.70;19.20;;;;;;;-142.75;100.00;80327.91;5037985;28;20055;-67
2023/01/25 02:55:32;;;;;;;42.92;20.13;;;;;;;-142.75;100.00;80341.69;5038059;28;20486;-66
2023/01/25 02:57:57;;;;;;;42.00;18.98;;;;;;;-142.75;100.00;80335.78;5037120;28;20028;-69
2023/01/25 03:00:23;;;;;;;41.00;20.38;;;;;;;-142.75;100.00;80345.63;5024228;28;20037;-65
2023/01/25 03:02:48;;;;;;;38.13;19.23;;;;;;;-142.75;100.00;80343.66;5021127;28;20161;-69
2023/01/25 03:05:14;;;;;;;41.10;20.52;;;;;;;-142.75;100.00;80347.59;5022100;28;20025;-68
2023/01/25 03:07:39;;;;;;;46.10;19.83;;;;;;;-142.75;100.00;80308.19;5020908;28;20033;-68
2023/01/25 03:10:04;;;;;;;43.83;20.63;;;;;;;-142.75;100.00;80316.09;5025659;28;20053;-68
2023/01/25 03:12:30;;;;;;;41.38;19.67;;;;;;;-142.75;100.00;80329.88;5041832;28;20881;-67
2023/01/25 03:14:55;;;;;;;37.35;18.75;;;;;;;-142.75;100.00;80312.16;5041798;28;20035;-64
2023/01/25 03:17:20;;;;;;;49.15;21.08;;;;;;;-142.75;100.00;80329.88;5023295;28;20021;-67
2023/01/25 03:19:46;;;;;;;45.58;21.08;;;;;;;-142.75;100.00;80312.16;5023846;28;20024;-67
2023/01/25 03:22:11;;;;;;;48.72;22.05;;;;;;;-142.75;100.00;80320.03;5041248;28;20499;-68
2023/01/25 03:24:36;;;;;;;44.58;19.42;;;;;;;-142.75;100.00;80323.97;5007898;28;20116;-67
2023/01/25 03:27:12;;;;;;;44.38;19.13;;;;;;;-142.75;100.00;80341.69;5020942;28;20025;-68
2023/01/25 03:29:38;;;;;;;48.08;21.30;;;;;;;-142.75;100.00;80351.56;5021308;28;20564;-67
2023/01/25 03:32:04;;;;;;;;;;;;;;;-142.75;100.00;80351.56;5021894;28;20029;-67
2023/01/25 03:34:29;;;;;;;39.63;17.37;;;;;;;-142.75;100.00;80357.47;5003668;28;19916;-67
2023/01/25 03:36:54;;;;;;;38.65;18.80;;;;;;;-142.75;100.00;80349.56;5021085;28;20148;-65
2023/01/25 03:39:20;;;;;;;40.80;18.63;;;;;;;-142.75;100.00;80331.84;5021342;28;20140;-68
2023/01/25 03:41:45;;;;;;;39.47;19.13;;;;;;;-142.75;100.00;80331.84;5031456;28;20032;-67
2023/01/25 03:44:11;;;;;;;44.97;19.58;;;;;;;-142.75;100.00;80345.63;5040935;28;20024;-67
2023/01/25 03:46:37;;;;;;;47.17;20.60;;;;;;;-142.75;100.00;80335.78;5040363;28;20082;-63
2023/01/25 03:49:03;;;;;;;42.80;20.43;;;;;;;-142.75;100.00;80327.91;5023056;28;20051;-68
2023/01/25 03:51:28;;;;;;;39.65;18.33;;;;;;;-142.75;100.00;80316.09;5023096;28;20045;-66
2023/01/25 03:53:54;;;;;;;42.45;19.23;;;;;;;-142.75;100.00;80316.09;5041219;28;20159;-67
2023/01/25 03:56:19;;;;;;;43.15;19.60;;;;;;;-142.75;100.00;80296.38;5040752;28;20033;-67
2023/01/25 03:58:45;;;;;;;43.50;19.58;;;;;;;-142.75;100.00;80304.25;5040112;28;20506;-67
2023/01/25 04:01:11;;;;;;;36.25;18.17;;;;;;;-142.75;100.00;80312.16;5022630;28;20033;-66
2023/01/25 04:03:36;;;;;;;41.83;19.52;;;;;;;-142.75;100.00;80316.09;5023486;28;20589;-68
2023/01/25 04:06:03;;;;;;;42.88;20.15;;;;;;;-142.75;100.00;80312.16;5020714;28;20075;-67
2023/01/25 04:08:28;;;;;;;42.17;20.03;;;;;;;-142.75;100.00;80304.25;5019935;28;20398;-68
2023/01/25 04:10:56;;;;;;;38.47;19.33;;;;;;;-142.75;100.00;80314.13;5020866;28;20037;-68
2023/01/25 04:13:23;;;;;;;40.80;19.47;;;;;;;-142.75;100.00;80316.09;5024536;28;20026;-67
2023/01/25 04:15:49;;;;;;;40.13;18.70;;;;;;;-142.75;100.00;80296.38;5041018;28;20549;-68
2023/01/25 04:18:15;;;;;;;27.17;13.63;;;;;;;-142.75;100.00;80331.84;5039917;28;20064;-67
2023/01/25 04:20:41;;;;;;;;;;;;;;;-142.75;100.00;80327.91;5041074;28;20055;-67
2023/01/25 04:23:07;;;;;;;38.67;17.13;;;;;;;-142.75;100.00;80331.84;5022510;28;20000;-67
2023/01/25 04:25:32;;;;;;;39.30;17.75;;;;;;;-142.75;100.00;80312.16;5034709;28;20029;-67
2023/01/25 04:27:58;;;;;;;37.22;18.83;;;;;;;-142.75;100.00;80294.41;5019850;28;20036;-68
2023/01/25 04:30:23;;;;;;;41.05;18.85;;;;;;;-142.75;100.00;80288.50;5035488;28;20116;-65
2023/01/25 04:32:49;;;;;;;41.92;19.67;;;;;;;-142.75;100.00;80300.31;5020301;28;20103;-67
2023/01/25 04:35:14;;;;;;;46.05;19.67;;;;;;;-142.75;100.00;80308.19;5002235;28;20037;-67
2023/01/25 04:37:40;;;;;;;44.28;19.90;;;;;;;-142.75;100.00;80331.84;5019483;28;20104;-67
2023/01/25 04:40:06;;;;;;;44.30;18.60;;;;;;;-142.75;100.00;80318.06;5002540;28;20032;-66
2023/01/25 04:42:31;;;;;;;;;;;;;;;-142.75;100.00;80312.16;5019123;28;20034;-68
2023/01/25 04:44:56;;;;;;;40.00;18.87;;;;;;;-142.75;100.00;80310.16;5002288;28;19921;-65
2023/01/25 04:47:22;;;;;;;44.88;20.27;;;;;;;-142.75;100.00;80304.25;5022757;28;20453;-67
2023/01/25 04:49:47;;;;;;;42.90;19.77;;;;;;;-142.75;100.00;80318.06;5039802;28;20029;-68
2023/01/25 04:52:12;;;;;;;41.42;19.40;;;;;;;-142.75;100.00;80310.16;5031531;28;20032;-67
2023/01/25 04:54:37;;;;;;;44.33;19.33;;;;;;;-142.75;100.00;80298.34;5031544;28;20013;-66
2023/01/25 04:57:03;;;;;;;43.80;19.83;;;;;;;-142.75;100.00;80300.31;5030533;28;20032;-66
2023/01/25 04:59:28;;;;;;;39.13;18.73;;;;;;;-142.75;100.00;80296.38;5039367;28;20032;-64
2023/01/25 05:01:53;;;;;;;41.17;19.02;;;;;;;-142.75;100.00;80300.31;5039744;28;20032;-66
2023/01/25 05:04:19;;;;;;;49.72;21.45;;;;;;;-142.75;100.00;80298.34;5021737;28;20031;-67
2023/01/25 05:06:44;;;;;;;42.83;19.65;;;;;;;-142.75;100.00;80304.25;5020815;28;20028;-67
2023/01/25 05:09:09;;;;;;;41.25;19.77;;;;;;;-142.75;100.00;80294.41;5039691;28;20021;-67
2023/01/25 05:11:35;;;;;;;45.28;20.40;;;;;;;-142.75;100.00;80288.50;5039334;28;20431;-67
2023/01/25 05:14:00;;;;;;;42.88;19.33;;;;;;;-142.75;100.00;80288.50;5039449;28;20581;-66
2023/01/25 05:16:25;;;;;;;44.33;20.25;;;;;;;-142.75;100.00;80284.56;5039217;28;20029;-66
2023/01/25 05:18:51;;;;;;;43.00;20.35;;;;;;;-142.75;100.00;80292.44;5021304;28;20502;-69
2023/01/25 05:24:00;;;;;;;49.90;20.80;;;;;;;-142.75;100.00;80298.34;5018526;28;20044;-67
2023/01/25 05:29:09;;;;;;;50.93;20.73;;;;;;;-142.75;100.00;80316.09;5019389;28;20105;-66
2023/01/25 05:31:34;;;;;;;49.83;21.40;;;;;;;-142.75;100.00;80296.38;5001337;28;20033;-67
2023/01/25 05:34:00;;;;;;;47.15;20.63;;;;;;;-142.75;100.00;80302.28;5019220;28;20128;-67
2023/01/25 05:36:25;;;;;;;49.65;21.40;;;;;;;-142.75;100.00;80306.22;5027935;28;20029;-65
2023/01/25 05:38:51;;;;;;;46.10;20.33;;;;;;;-142.75;100.00;80308.19;5020594;28;20020;-68
2023/01/25 05:41:17;;;;;;;45.17;20.93;;;;;;;-142.75;100.00;80304.25;5038761;28;20024;-68
2023/01/25 05:43:42;;;;;;;47.80;21.00;;;;;;;-142.75;100.00;80290.47;5038894;28;20070;-68
2023/01/25 05:46:07;;;;;;;47.88;20.83;;;;;;;-142.75;100.00;80280.63;5008220;28;20029;-68
2023/01/25 05:48:33;;;;;;;50.90;20.63;;;;;;;-142.75;100.00;80274.72;5029114;28;20029;-67
2023/01/25 05:50:58;;;;;;;48.90;21.45;;;;;;;-142.75;100.00;80268.78;5027952;28;20064;-67
2023/01/25 05:53:27;;;;;;;46.53;20.50;;;;;;;-142.75;100.00;80245.16;5021043;28;20409;-67
2023/01/25 05:55:53;;;;;;;45.63;20.60;;;;;;;-142.75;100.00;80241.22;5006990;28;20483;-68
2023/01/25 05:58:18;;;;;;;50.28;21.52;;;;;;;-142.75;100.00;80241.22;5026523;28;20133;-68
2023/01/25 06:00:43;;;;;;;47.80;21.40;;;;;;;-142.75;100.00;80251.06;5033295;28;20027;-68
2023/01/25 06:03:09;;;;;;;49.60;20.08;;;;;;;-142.75;100.00;80227.41;5020895;28;20021;-66
2023/01/25 06:05:36;;;;;;;43.45;20.95;;;;;;;-142.75;100.00;80256.97;5024710;28;20021;-68
2023/01/25 06:08:01;;;;;;;43.27;20.67;;;;;;;-142.75;100.00;80276.69;5017502;28;20029;-65
2023/01/25 06:10:27;;;;;;;47.05;20.02;;;;;;;-142.75;100.00;80272.75;5031112;28;20870;-69
2023/01/25 06:12:58;;;;;;;45.25;20.42;;;;;;;-142.75;100.00;80268.78;5032345;28;20114;-67
2023/01/25 06:15:23;;;;;;;43.83;19.07;;;;;;;-142.75;100.00;80264.84;5038382;28;20029;-66
2023/01/25 06:17:53;;;;;;;46.95;20.65;;;;;;;-142.75;100.00;80258.94;5032181;28;20360;-67
2023/01/25 06:20:18;;;;;;;43.57;20.37;;;;;;;-142.75;100.00;80258.94;5000871;28;20082;-67
2023/01/25 06:22:48;;;;;;;45.55;20.52;;;;;;;-142.75;100.00;80253.03;5018558;28;20049;-67
2023/01/25 06:25:14;;;;;;;50.33;20.77;;;;;;;-142.75;100.00;80258.94;5000701;28;20087;-65
2023/01/25 06:27:39;;;;;;;45.92;20.80;;;;;;;-142.75;100.00;80268.78;5018038;28;20025;-68
2023/01/25 06:30:05;;;;;;;45.45;21.13;;;;;;;-142.75;100.00;80272.75;5019841;28;20025;-67
2023/01/25 06:32:32;;;;;;;48.67;21.87;;;;;;;-142.75;100.00;80264.84;5023204;28;20472;-67
2023/01/25 06:34:57;;;;;;;;;;;;;;;-142.75;100.00;80255.00;5030925;28;20104;-68
2023/01/25 06:37:22;;;;;;;44.13;19.10;;;;;;;-142.75;100.00;80255.00;5022230;28;19982;-66
2023/01/25 06:39:48;;;;;;;45.35;21.33;;;;;;;-142.75;100.00;80260.91;5023103;28;20021;-68
2023/01/25 06:42:13;;;;;;;48.67;21.02;;;;;;;-142.75;100.00;80266.81;5039773;28;20017;-67
2023/01/25 06:44:38;;;;;;;46.88;21.38;;;;;;;-142.75;100.00;80253.03;5042097;28;20075;-67
2023/01/25 06:47:04;;;;;;;44.05;19.73;;;;;;;-142.75;100.00;80249.09;5041360;28;20848;-68
2023/01/25 06:49:29;;;;;;;46.15;19.98;;;;;;;-142.75;100.00;80260.91;5023811;28;20828;-67
2023/01/25 06:51:55;;;;;;;47.38;21.38;;;;;;;-142.75;100.00;80260.91;5042180;28;20517;-68
2023/01/25 06:54:20;;;;;;;46.78;20.25;;;;;;;-142.75;100.00;80249.09;5024329;28;20802;-67
2023/01/25 06:56:45;;;;;;;59.05;23.45;;;;;;;-142.75;100.00;80256.97;5027159;28;20087;-66
2023/01/25 06:59:11;;;;;;;47.95;20.33;;;;;;;-142.75;100.00;80253.03;5022054;28;20115;-67
2023/01/25 07:01:36;;;;;;;44.15;20.77;;;;;;;-142.75;100.00;80249.09;5021761;28;20037;-68
2023/01/25 07:04:01;;;;;;;52.42;21.88;;;;;;;-142.75;100.00;80243.19;5040362;28;20056;-67
2023/01/25 07:06:32;;;;;;;44.20;18.83;;;;;;;-142.75;100.00;80247.13;5041582;28;20029;-64
2023/01/25 07:09:02;;;;;;;43.17;20.23;;;;;;;-142.75;100.00;80241.22;5041115;28;20819;-68
2023/01/25 07:11:27;;;;;;;43.60;21.13;;;;;;;-142.75;100.00;80251.06;5041525;28;20029;-67
2023/01/25 07:13:53;;;;;;;43.13;20.05;;;;;;;-142.75;100.00;80245.16;5043171;28;20793;-69
2023/01/25 07:16:19;;;;;;;51.55;21.95;;;;;;;-142.75;100.00;80231.34;5041568;28;20502;-69
2023/01/25 07:18:44;;;;;;;43.75;19.67;;;;;;;-142.75;100.00;80229.38;5040839;28;20033;-68
2023/01/25 07:21:20;;;;;;;48.05;20.48;;;;;;;-142.75;100.00;80243.19;5041689;28;20099;-69
2023/01/25 07:23:46;;;;;;;45.58;20.45;;;;;;;-142.75;100.00;80251.06;5041526;28;20039;-70
2023/01/25 07:26:16;;;;;;;47.35;21.55;;;;;;;-142.75;100.00;80260.91;5041266;28;20105;-68
2023/01/25 07:28:41;;;;;;;46.43;20.03;;;;;;;-142.75;100.00;80253.03;5040378;28;20032;-68
2023/01/25 07:31:07;;;;;;;44.55;20.38;;;;;;;-142.75;100.00;80260.91;5041588;28;20056;-68
2023/01/25 07:33:33;;;;;;;45.75;20.80;;;;;;;-142.75;100.00;80262.88;5023246;28;20024;-68
2023/01/25 07:36:00;;;;;;;48.70;21.27;;;;;;;-142.75;100.00;80241.22;5041277;28;20045;-68
2023/01/25 07:38:26;;;;;;;46.40;20.33;;;;;;;-142.75;100.00;80241.22;5040620;28;20092;-68
2023/01/25 07:40:52;;;;;;;41.38;18.88;;;;;;;-142.75;100.00;80243.19;5041326;28;20104;-68
2023/01/25 07:43:18;;;;;;;49.55;21.27;;;;;;;-142.75;100.00;80227.41;5041034;28;20441;-68
2023/01/25 07:45:47;;;;;;;48.80;21.35;;;;;;;-142.75;100.00;80233.31;5040985;28;20025;-69
2023/01/25 07:48:13;;;;;;;49.33;20.57;;;;;;;-142.75;100.00;80233.31;5040060;28;20027;-68
2023/01/25 07:50:40;;;;;;;50.97;21.70;;;;;;;-142.75;100.00;80217.56;5041066;28;20029;-68
2023/01/25 07:53:08;;;;;;;49.67;21.63;;;;;;;-142.75;100.00;80213.63;5040807;28;20033;-68
2023/01/25 07:55:34;;;;;;;48.47;20.67;;;;;;;-142.75;100.00;80209.69;5040980;28;20824;-69
2023/01/25 07:57:59;;;;;;;51.30;21.38;;;;;;;-142.75;100.00;80219.53;5040299;28;20021;-69
2023/01/25 08:00:25;;;;;;;50.53;21.67;;;;;;;-142.75;100.00;80227.41;5034985;28;20037;-67
2023/01/25 08:02:52;;;;;;;54.43;22.50;;;;;;;-142.75;100.00;80231.34;5021157;28;20021;-69
2023/01/25 08:05:18;;;;;;;52.37;22.17;;;;;;;-142.75;100.00;80233.31;5020936;28;20065;-68
2023/01/25 08:07:44;;;;;;;49.17;20.63;;;;;;;-142.75;100.00;80258.94;5020247;28;20117;-68
2023/01/25 08:10:10;;;;;;;49.83;22.30;;;;;;;-142.75;100.00;80272.75;5035889;28;20900;-68
2023/01/25 08:12:35;;;;;;;;;;;;;;;-142.75;100.00;80260.91;5040860;28;20081;-68
2023/01/25 08:15:00;;;;;;;47.37;20.47;;;;;;;-142.75;100.00;80268.78;5040802;28;20844;-68
2023/01/25 08:17:30;;;;;;;53.85;24.50;;;;;;;-142.75;100.00;80286.53;5040292;28;20021;-69
2023/01/25 08:19:57;;;;;;;64.37;28.80;;;;;;;-142.75;100.00;80262.88;5040568;28;20056;-66
2023/01/25 08:22:23;;;;;;;56.47;24.77;;;;;;;-142.75;100.00;80260.91;5040457;28;20016;-67
2023/01/25 08:24:49;;;;;;;66.90;30.08;;;;;;;-142.75;100.00;80260.91;5040515;28;20356;-69
2023/01/25 08:27:14;;;;;;;;;;;;;;;-142.75;100.00;80260.91;5040196;28;20090;-69
2023/01/25 08:29:39;;;;;;;53.90;22.97;;;;;;;-142.75;100.00;80253.03;5014563;28;19913;-68
2023/01/25 08:32:06;;;;;;;55.65;22.65;;;;;;;-142.75;100.00;80270.75;5020429;28;20068;-68
2023/01/25 08:34:32;;;;;;;58.77;24.27;;;;;;;-142.75;100.00;80253.03;5020402;28;20513;-68
2023/01/25 08:36:57;;;;;;;56.55;22.80;;;;;;;-142.75;100.00;80255.00;5019654;28;20037;-68
2023/01/25 08:39:22;;;;;;;59.45;24.65;;;;;;;-142.75;100.00;80268.78;5021958;28;20029;-66
2023/01/25 08:41:48;;;;;;;57.17;23.10;;;;;;;-142.75;100.00;80253.03;5040419;28;20074;-68
2023/01/25 08:44:13;;;;;;;50.88;21.70;;;;;;;-142.75;100.00;80229.38;5039997;28;20115;-68
2023/01/25 08:46:38;;;;;;;58.55;23.17;;;;;;;-142.75;100.00;80229.38;5039246;28;20029;-69
2023/01/25 08:49:04;;;;;;;56.00;24.08;;;;;;;-142.75;100.00;80209.69;5025939;28;20029;-68
2023/01/25 08:51:31;;;;;;;59.60;24.67;;;;;;;-142.75;100.00;80197.88;5020131;28;20025;-69
2023/01/25 08:54:01;;;;;;;52.50;23.63;;;;;;;-142.75;100.00;80186.03;5006198;28;20079;-66
2023/01/25 08:56:26;;;;;;;53.47;23.20;;;;;;;-142.75;100.00;80201.81;5026823;28;20087;-66
2023/01/25 08:58:52;;;;;;;56.85;23.38;;;;;;;-142.75;100.00;80182.09;5019885;28;20026;-68
2023/01/25 09:01:19;;;;;;;54.45;21.92;;;;;;;-142.75;100.00;80180.13;5019543;28;20437;-68
2023/01/25 09:03:46;;;;;;;51.33;21.43;;;;;;;-142.75;100.00;80189.97;5020104;28;20086;-68
2023/01/25 09:06:13;;;;;;;55.60;23.20;;;;;;;-142.75;100.00;80211.66;5002105;28;20040;-67
2023/01/25 09:08:38;;;;;;;54.47;24.50;;;;;;;-142.75;100.00;80189.97;5018941;28;20030;-69
2023/01/25 09:11:09;;;;;;;55.85;23.25;;;;;;;-142.75;100.00;80174.22;5019746;28;20503;-67
2023/01/25 09:13:35;;;;;;;55.23;23.00;;;;;;;-142.75;100.00;80193.94;5002055;28;20029;-68
2023/01/25 09:16:11;;;;;;;60.08;24.17;;;;;;;-142.75;100.00;80178.16;5019723;28;20028;-68
2023/01/25 09:18:37;;;;;;;54.85;22.77;;;;;;;-142.75;100.00;80195.91;5018901;28;20033;-68
2023/01/25 09:21:11;;;;;;;55.37;24.10;;;;;;;-142.75;100.00;80184.06;5019460;28;20491;-68
2023/01/25 09:23:37;;;;;;;54.37;23.97;;;;;;;-142.75;100.00;80166.34;5001459;28;20056;-69
2023/01/25 09:26:03;;;;;;;58.45;24.80;;;;;;;-142.75;100.00;80170.28;5019266;28;20029;-68
2023/01/25 09:28:30;;;;;;;56.07;22.97;;;;;;;-142.75;100.00;80191.97;5018708;28;20068;-69
2023/01/25 09:30:56;;;;;;;57.20;23.87;;;;;;;-142.75;100.00;80174.22;5019525;28;20730;-66
2023/01/25 09:33:31;;;;;;;56.25;23.75;;;;;;;-142.75;100.00;80172.25;5001923;28;20037;-69
2023/01/25 09:35:56;;;;;;;61.07;23.77;;;;;;;-142.75;100.00;80168.31;5019294;28;20079;-66
2023/01/25 09:38:22;;;;;;;53.10;21.83;;;;;;;-142.75;100.00;80154.53;5018813;28;20033;-68
2023/01/25 09:41:26;;;;;;;64.95;23.65;;;;;;;-142.75;100.00;80138.75;5019457;28;20041;-68
2023/01/25 09:44:04;;;;;;;52.60;22.83;;;;;;;-142.75;100.00;80111.19;4981492;28;20033;-69
2023/01/25 09:46:41;;;;;;;53.43;22.17;;;;;;;-142.75;100.00;80119.06;5018465;28;20017;-69
2023/01/25 09:49:17;;;;;;;59.20;24.70;;;;;;;-142.75;100.00;80121.03;5001210;28;20021;-67
2023/01/25 09:52:01;;;;;;;;;;;;;;;-142.75;100.00;80136.78;5019329;28;20025;-67
2023/01/25 09:54:28;;;;;;;57.40;22.40;;;;;;;-142.75;100.00;80138.75;5018797;28;19912;-69
2023/01/25 09:56:55;;;;;;;58.47;23.53;;;;;;;-142.75;100.00;80138.75;5000675;28;20108;-68
2023/01/25 09:59:26;;;;;;;54.93;23.60;;;;;;;-142.75;100.00;80132.84;5019203;28;20037;-67
2023/01/25 10:01:58;;;;;;;56.30;23.83;;;;;;;-142.75;100.00;80126.94;5018740;28;20028;-69
2023/01/25 10:04:28;;;;;;;67.63;24.17;;;;;;;-142.75;100.00;80128.91;5018622;28;20029;-68
2023/01/25 10:07:09;;;;;;;57.87;25.23;;;;;;;-142.75;100.00;80109.22;5000307;28;20029;-69
2023/01/25 10:09:50;;;;;;;62.67;26.50;;;;;;;-142.75;100.00;80115.13;5001130;28;20502;-68
2023/01/25 10:12:20;;;;;;;63.27;25.30;;;;;;;-142.75;100.00;80119.06;5017220;28;20453;-69
2023/01/25 10:14:45;;;;;;;63.63;25.07;;;;;;;-142.75;100.00;80105.25;5019193;28;20101;-69
2023/01/25 10:17:30;;;;;;;63.60;25.40;;;;;;;-142.75;100.00;80136.78;5000266;28;20778;-67
2023/01/25 10:19:58;;;;;;;57.70;24.07;;;;;;;-142.75;100.00;80115.13;5035867;28;20028;-67
2023/01/25 10:22:28;;;;;;;56.80;23.33;;;;;;;-142.75;100.00;80130.88;5038152;28;20029;-67
2023/01/25 10:25:24;;;;;;;63.70;25.63;;;;;;;-142.75;100.00;80128.91;5038454;28;20023;-69
2023/01/25 10:28:12;;;;;;;54.73;24.20;;;;;;;-142.75;100.00;80146.63;5019863;28;20592;-69
2023/01/25 10:30:51;;;;;;;62.70;24.97;;;;;;;-142.75;100.00;80150.59;5038327;28;20033;-68
2023/01/25 10:33:19;;;;;;;63.67;25.67;;;;;;;-142.75;100.00;80123.00;5013929;28;20620;-68
2023/01/25 10:35:47;;;;;;;65.33;26.50;;;;;;;-142.75;100.00;80107.22;5020433;28;20025;-67
2023/01/25 10:38:23;;;;;;;65.77;25.30;;;;;;;-142.75;100.00;80099.34;5037245;28;20033;-66
2023/01/25 10:40:55;;;;;;;63.67;26.47;;;;;;;-142.75;100.00;80085.56;5038660;28;20703;-68
2023/01/25 10:43:21;;;;;;;65.13;26.87;;;;;;;-142.75;100.00;80069.81;5038235;28;20075;-68
2023/01/25 10:45:49;;;;;;;70.32;27.10;;;;;;;-142.75;100.00;80061.91;5020564;28;20112;-67
2023/01/25 10:48:21;;;;;;;69.50;27.23;;;;;;;-142.75;100.00;80057.97;5037461;28;20040;-67
2023/01/25 10:50:51;;;;;;;65.53;27.77;;;;;;;-142.75;100.00;80099.34;5037910;28;20096;-68
2023/01/25 10:53:27;;;;;;;62.73;25.70;;;;;;;-142.75;100.00;80107.22;5019935;28;20461;-68
2023/01/25 10:56:18;;;;;;;68.13;26.13;;;;;;;-142.75;100.00;80077.69;5020278;28;20029;-68
2023/01/25 10:58:46;;;;;;;57.83;24.77;;;;;;;-142.75;100.00;80083.59;5037358;28;20427;-68
2023/01/25 11:01:27;;;;;;;61.37;25.57;;;;;;;-142.75;100.00;80065.84;5037870;28;20035;-68
2023/01/25 11:03:53;;;;;;;62.67;26.50;;;;;;;-142.75;100.00;80056.00;5038227;28;20082;-67
2023/01/25 11:06:36;;;;;;;65.10;25.85;;;;;;;-142.75;100.00;80028.44;5037188;28;20082;-68
2023/01/25 11:09:19;;;;;;;62.50;24.13;;;;;;;-142.75;100.00;80075.72;5018014;28;20478;-66
2023/01/25 11:11:56;;;;;;;68.10;27.87;;;;;;;-142.75;100.00;80065.84;5017864;28;20087;-69
2023/01/25 11:14:27;;;;;;;67.47;26.57;;;;;;;-142.75;100.00;80052.06;5018501;28;20920;-68